Current Weather

Middle Wallop

Middle Wallop, United Kingdom (EGVP)

Report from: Monday, September 26, 2022 3:50 AM BST
Current time: Monday, September 26, 2022 5:00 AM BST

Nearby weather
Weather history
Weather forecast

Present weatherUnknown precipitation
Temperature12.0°C (53.6°F)
Dew point10.0°C (50.0°F)
Winds 10 kts (5.1 m/s, 11.5 mph) West-Southwest (240°)
Visibility6.2 mi. (10 km)
Clouds Scattered clouds 1,600 ft. (488 m)
Ceiling: Broken clouds 9,000 ft. (2,743 m)
Altimeter29.71 in.Hg (1006 mB)
Relative humidity88 %
Density altitude63 ft. (19 m)
Remarks Fully automated report
Flight conditions Visual Meteorological Conditions
Raw dataEGVP 260250Z AUTO 24010KT 9999 UP SCT016/// BKN090/// 12/10 Q1006
An error has occurred. This application may no longer respond until reloaded. Reload 🗙